sensor_id;sensor_type;location;lat;lon;timestamp;temperature;humidity
14551;DHT22;7362;50.956;4.184;2022-07-06T00:00:50;16.30;99.90
14551;DHT22;7362;50.956;4.184;2022-07-06T00:03:16;16.20;99.90
14551;DHT22;7362;50.956;4.184;2022-07-06T00:05:43;16.20;99.90
14551;DHT22;7362;50.956;4.184;2022-07-06T00:08:09;16.10;99.90
14551;DHT22;7362;50.956;4.184;2022-07-06T00:10:34;16.10;99.90
14551;DHT22;7362;50.956;4.184;2022-07-06T00:13:01;16.10;99.90
14551;DHT22;7362;50.956;4.184;2022-07-06T00:15:27;16.10;99.90
14551;DHT22;7362;50.956;4.184;2022-07-06T00:17:53;16.00;99.90
14551;DHT22;7362;50.956;4.184;2022-07-06T00:20:18;16.00;99.90
14551;DHT22;7362;50.956;4.184;2022-07-06T00:22:44;16.10;99.90
14551;DHT22;7362;50.956;4.184;2022-07-06T00:25:10;16.00;99.90
14551;DHT22;7362;50.956;4.184;2022-07-06T00:27:35;16.00;99.90
14551;DHT22;7362;50.956;4.184;2022-07-06T00:30:02;15.90;99.90
14551;DHT22;7362;50.956;4.184;2022-07-06T00:32:29;15.90;99.90
14551;DHT22;7362;50.956;4.184;2022-07-06T00:34:55;15.90;99.90
14551;DHT22;7362;50.956;4.184;2022-07-06T00:37:20;15.90;99.90
14551;DHT22;7362;50.956;4.184;2022-07-06T00:39:46;15.90;99.90
14551;DHT22;7362;50.956;4.184;2022-07-06T00:42:11;16.00;99.90
14551;DHT22;7362;50.956;4.184;2022-07-06T00:44:37;15.90;99.90
14551;DHT22;7362;50.956;4.184;2022-07-06T00:47:03;16.00;99.90
14551;DHT22;7362;50.956;4.184;2022-07-06T00:49:29;15.90;99.90
14551;DHT22;7362;50.956;4.184;2022-07-06T00:52:13;15.90;99.90
14551;DHT22;7362;50.956;4.184;2022-07-06T00:54:41;16.00;99.90
14551;DHT22;7362;50.956;4.184;2022-07-06T00:57:08;16.00;99.90
14551;DHT22;7362;50.956;4.184;2022-07-06T00:59:35;16.00;99.90
14551;DHT22;7362;50.956;4.184;2022-07-06T01:02:01;16.00;99.90
14551;DHT22;7362;50.956;4.184;2022-07-06T01:04:26;16.00;99.90
14551;DHT22;7362;50.956;4.184;2022-07-06T01:06:52;16.00;99.90
14551;DHT22;7362;50.956;4.184;2022-07-06T01:09:18;16.00;99.90
14551;DHT22;7362;50.956;4.184;2022-07-06T01:11:44;16.00;99.90
14551;DHT22;7362;50.956;4.184;2022-07-06T01:14:11;16.00;99.90
14551;DHT22;7362;50.956;4.184;2022-07-06T01:16:37;15.90;99.90
14551;DHT22;7362;50.956;4.184;2022-07-06T01:19:03;15.90;99.90
14551;DHT22;7362;50.956;4.184;2022-07-06T01:21:29;15.90;99.90
14551;DHT22;7362;50.956;4.184;2022-07-06T01:23:56;15.90;99.90
14551;DHT22;7362;50.956;4.184;2022-07-06T01:26:22;15.90;99.90
14551;DHT22;7362;50.956;4.184;2022-07-06T01:28:50;15.90;99.90
14551;DHT22;7362;50.956;4.184;2022-07-06T01:31:24;16.00;99.90
14551;DHT22;7362;50.956;4.184;2022-07-06T01:33:55;15.90;99.90
14551;DHT22;7362;50.956;4.184;2022-07-06T01:36:24;16.00;99.90
14551;DHT22;7362;50.956;4.184;2022-07-06T01:38:55;15.90;99.90
14551;DHT22;7362;50.956;4.184;2022-07-06T01:41:23;15.90;99.90
14551;DHT22;7362;50.956;4.184;2022-07-06T01:43:51;15.90;99.90
14551;DHT22;7362;50.956;4.184;2022-07-06T01:46:17;15.90;99.90
14551;DHT22;7362;50.956;4.184;2022-07-06T01:48:44;15.90;99.90
14551;DHT22;7362;50.956;4.184;2022-07-06T01:51:10;15.90;99.90
14551;DHT22;7362;50.956;4.184;2022-07-06T01:53:37;16.00;99.90
14551;DHT22;7362;50.956;4.184;2022-07-06T01:56:03;15.90;99.90
14551;DHT22;7362;50.956;4.184;2022-07-06T01:58:29;15.90;99.90
14551;DHT22;7362;50.956;4.184;2022-07-06T02:00:56;15.70;99.90
14551;DHT22;7362;50.956;4.184;2022-07-06T02:03:22;15.80;99.90
14551;DHT22;7362;50.956;4.184;2022-07-06T02:05:48;15.80;99.90
14551;DHT22;7362;50.956;4.184;2022-07-06T02:08:13;15.70;99.90
14551;DHT22;7362;50.956;4.184;2022-07-06T02:10:39;15.60;99.90
14551;DHT22;7362;50.956;4.184;2022-07-06T02:13:05;15.50;99.90
14551;DHT22;7362;50.956;4.184;2022-07-06T02:15:31;15.40;99.90
14551;DHT22;7362;50.956;4.184;2022-07-06T02:17:59;15.50;99.90
14551;DHT22;7362;50.956;4.184;2022-07-06T02:20:27;15.50;99.90
14551;DHT22;7362;50.956;4.184;2022-07-06T02:22:53;15.50;99.90
14551;DHT22;7362;50.956;4.184;2022-07-06T02:25:18;15.50;99.90
14551;DHT22;7362;50.956;4.184;2022-07-06T02:27:44;15.60;99.90
14551;DHT22;7362;50.956;4.184;2022-07-06T02:30:10;15.50;99.90
14551;DHT22;7362;50.956;4.184;2022-07-06T02:32:36;15.50;99.90
14551;DHT22;7362;50.956;4.184;2022-07-06T02:35:01;15.60;99.90
14551;DHT22;7362;50.956;4.184;2022-07-06T02:37:28;15.60;99.90
14551;DHT22;7362;50.956;4.184;2022-07-06T02:39:53;15.60;99.90
14551;DHT22;7362;50.956;4.184;2022-07-06T02:42:19;15.60;99.90
14551;DHT22;7362;50.956;4.184;2022-07-06T02:44:44;15.60;99.90
14551;DHT22;7362;50.956;4.184;2022-07-06T02:47:10;15.60;99.90
14551;DHT22;7362;50.956;4.184;2022-07-06T02:49:36;15.50;99.90
14551;DHT22;7362;50.956;4.184;2022-07-06T02:52:01;15.60;99.90
14551;DHT22;7362;50.956;4.184;2022-07-06T02:54:27;15.50;99.90
14551;DHT22;7362;50.956;4.184;2022-07-06T02:56:53;15.50;99.90
14551;DHT22;7362;50.956;4.184;2022-07-06T02:59:20;15.50;99.90
14551;DHT22;7362;50.956;4.184;2022-07-06T03:01:46;15.50;99.90
14551;DHT22;7362;50.956;4.184;2022-07-06T03:04:11;15.50;99.90
14551;DHT22;7362;50.956;4.184;2022-07-06T03:06:37;15.50;99.90
14551;DHT22;7362;50.956;4.184;2022-07-06T03:09:03;15.60;99.90
14551;DHT22;7362;50.956;4.184;2022-07-06T03:11:28;15.50;99.90
14551;DHT22;7362;50.956;4.184;2022-07-06T03:13:54;15.50;99.90
14551;DHT22;7362;50.956;4.184;2022-07-06T03:16:20;15.40;99.90
14551;DHT22;7362;50.956;4.184;2022-07-06T03:18:45;15.30;99.90
14551;DHT22;7362;50.956;4.184;2022-07-06T03:21:11;15.30;99.90
14551;DHT22;7362;50.956;4.184;2022-07-06T03:23:37;15.30;99.90
14551;DHT22;7362;50.956;4.184;2022-07-06T03:26:02;15.30;99.90
14551;DHT22;7362;50.956;4.184;2022-07-06T03:28:28;15.20;99.90
14551;DHT22;7362;50.956;4.184;2022-07-06T03:30:56;15.30;99.90
14551;DHT22;7362;50.956;4.184;2022-07-06T03:33:22;15.40;99.90
14551;DHT22;7362;50.956;4.184;2022-07-06T03:35:48;15.40;99.90
14551;DHT22;7362;50.956;4.184;2022-07-06T03:38:13;15.50;99.90
14551;DHT22;7362;50.956;4.184;2022-07-06T03:40:39;15.50;99.90
14551;DHT22;7362;50.956;4.184;2022-07-06T03:43:05;15.60;99.90
14551;DHT22;7362;50.956;4.184;2022-07-06T03:45:30;15.50;99.90
14551;DHT22;7362;50.956;4.184;2022-07-06T03:47:58;15.50;99.90
14551;DHT22;7362;50.956;4.184;2022-07-06T03:50:23;15.50;99.90
14551;DHT22;7362;50.956;4.184;2022-07-06T03:52:49;15.70;99.90
14551;DHT22;7362;50.956;4.184;2022-07-06T03:55:14;15.80;99.90
14551;DHT22;7362;50.956;4.184;2022-07-06T03:57:40;15.70;99.90
14551;DHT22;7362;50.956;4.184;2022-07-06T04:00:07;15.70;99.90
14551;DHT22;7362;50.956;4.184;2022-07-06T04:02:33;15.50;99.90
14551;DHT22;7362;50.956;4.184;2022-07-06T04:04:59;15.40;99.90
14551;DHT22;7362;50.956;4.184;2022-07-06T04:07:25;15.40;99.90
14551;DHT22;7362;50.956;4.184;2022-07-06T04:09:51;15.50;99.90
14551;DHT22;7362;50.956;4.184;2022-07-06T04:12:20;15.60;99.90
14551;DHT22;7362;50.956;4.184;2022-07-06T04:14:45;15.60;99.90
14551;DHT22;7362;50.956;4.184;2022-07-06T04:17:11;15.70;99.90
14551;DHT22;7362;50.956;4.184;2022-07-06T04:19:55;15.80;99.90
14551;DHT22;7362;50.956;4.184;2022-07-06T04:22:21;15.80;99.90
14551;DHT22;7362;50.956;4.184;2022-07-06T04:24:46;15.80;99.90
14551;DHT22;7362;50.956;4.184;2022-07-06T04:27:12;15.80;99.90
14551;DHT22;7362;50.956;4.184;2022-07-06T04:29:38;15.80;99.90
14551;DHT22;7362;50.956;4.184;2022-07-06T04:32:04;15.90;99.90
14551;DHT22;7362;50.956;4.184;2022-07-06T04:34:29;16.00;99.90
14551;DHT22;7362;50.956;4.184;2022-07-06T04:36:55;15.90;99.90
14551;DHT22;7362;50.956;4.184;2022-07-06T04:39:21;15.90;99.90
14551;DHT22;7362;50.956;4.184;2022-07-06T04:41:46;15.90;99.90
14551;DHT22;7362;50.956;4.184;2022-07-06T04:44:15;15.90;99.90
14551;DHT22;7362;50.956;4.184;2022-07-06T04:46:41;15.90;99.90
14551;DHT22;7362;50.956;4.184;2022-07-06T04:49:06;15.90;99.90
14551;DHT22;7362;50.956;4.184;2022-07-06T04:51:32;15.90;99.90
14551;DHT22;7362;50.956;4.184;2022-07-06T04:53:58;16.00;99.90
14551;DHT22;7362;50.956;4.184;2022-07-06T04:56:24;16.10;99.90
14551;DHT22;7362;50.956;4.184;2022-07-06T04:58:53;16.10;99.90
14551;DHT22;7362;50.956;4.184;2022-07-06T05:01:21;16.30;99.90
14551;DHT22;7362;50.956;4.184;2022-07-06T05:03:49;16.80;99.90
14551;DHT22;7362;50.956;4.184;2022-07-06T05:06:15;17.00;99.90
14551;DHT22;7362;50.956;4.184;2022-07-06T05:08:41;17.00;99.90
14551;DHT22;7362;50.956;4.184;2022-07-06T05:11:07;16.90;99.90
14551;DHT22;7362;50.956;4.184;2022-07-06T05:13:32;16.70;99.90
14551;DHT22;7362;50.956;4.184;2022-07-06T05:15:58;16.50;99.90
14551;DHT22;7362;50.956;4.184;2022-07-06T05:18:24;16.50;99.90
14551;DHT22;7362;50.956;4.184;2022-07-06T05:20:52;16.40;99.90
14551;DHT22;7362;50.956;4.184;2022-07-06T05:23:17;16.40;99.90
14551;DHT22;7362;50.956;4.184;2022-07-06T05:25:43;16.50;99.90
14551;DHT22;7362;50.956;4.184;2022-07-06T05:28:09;16.60;99.90
14551;DHT22;7362;50.956;4.184;2022-07-06T05:30:34;16.50;99.90
14551;DHT22;7362;50.956;4.184;2022-07-06T05:33:01;16.70;99.90
14551;DHT22;7362;50.956;4.184;2022-07-06T05:35:27;16.70;99.90
14551;DHT22;7362;50.956;4.184;2022-07-06T05:37:53;16.70;99.90
14551;DHT22;7362;50.956;4.184;2022-07-06T05:40:19;16.70;99.90
14551;DHT22;7362;50.956;4.184;2022-07-06T05:42:45;16.90;99.90
14551;DHT22;7362;50.956;4.184;2022-07-06T05:45:11;17.00;99.90
14551;DHT22;7362;50.956;4.184;2022-07-06T05:47:37;17.40;99.90
14551;DHT22;7362;50.956;4.184;2022-07-06T05:50:26;17.90;99.90
14551;DHT22;7362;50.956;4.184;2022-07-06T05:53:04;18.10;99.90
14551;DHT22;7362;50.956;4.184;2022-07-06T05:55:30;18.10;99.90
14551;DHT22;7362;50.956;4.184;2022-07-06T05:57:57;18.20;99.90
14551;DHT22;7362;50.956;4.184;2022-07-06T06:00:23;18.30;99.90
14551;DHT22;7362;50.956;4.184;2022-07-06T06:02:51;18.50;99.90
14551;DHT22;7362;50.956;4.184;2022-07-06T06:05:17;18.80;99.90
14551;DHT22;7362;50.956;4.184;2022-07-06T06:07:44;19.80;99.90
14551;DHT22;7362;50.956;4.184;2022-07-06T06:10:16;20.10;99.90
14551;DHT22;7362;50.956;4.184;2022-07-06T06:12:43;20.10;99.90
14551;DHT22;7362;50.956;4.184;2022-07-06T06:15:10;20.10;99.90
14551;DHT22;7362;50.956;4.184;2022-07-06T06:17:37;20.00;99.90
14551;DHT22;7362;50.956;4.184;2022-07-06T06:20:07;19.90;99.90
14551;DHT22;7362;50.956;4.184;2022-07-06T06:22:54;19.70;99.90
14551;DHT22;7362;50.956;4.184;2022-07-06T06:25:31;20.20;99.90
14551;DHT22;7362;50.956;4.184;2022-07-06T06:27:57;20.90;99.90
14551;DHT22;7362;50.956;4.184;2022-07-06T06:30:29;22.40;99.90
14551;DHT22;7362;50.956;4.184;2022-07-06T06:33:15;22.60;99.90
14551;DHT22;7362;50.956;4.184;2022-07-06T06:35:44;22.90;99.90
14551;DHT22;7362;50.956;4.184;2022-07-06T06:38:10;22.40;99.90
14551;DHT22;7362;50.956;4.184;2022-07-06T06:40:36;21.90;99.90
14551;DHT22;7362;50.956;4.184;2022-07-06T06:43:01;22.90;99.90
14551;DHT22;7362;50.956;4.184;2022-07-06T06:45:27;23.50;99.90
14551;DHT22;7362;50.956;4.184;2022-07-06T06:47:54;23.40;99.90
14551;DHT22;7362;50.956;4.184;2022-07-06T06:50:20;23.60;99.90
14551;DHT22;7362;50.956;4.184;2022-07-06T06:52:46;24.50;99.90
14551;DHT22;7362;50.956;4.184;2022-07-06T06:55:12;23.80;99.90
14551;DHT22;7362;50.956;4.184;2022-07-06T06:57:37;24.20;99.90
14551;DHT22;7362;50.956;4.184;2022-07-06T07:00:04;24.20;99.90
14551;DHT22;7362;50.956;4.184;2022-07-06T07:02:30;23.30;99.90
14551;DHT22;7362;50.956;4.184;2022-07-06T07:04:55;22.70;99.90
14551;DHT22;7362;50.956;4.184;2022-07-06T07:07:21;23.40;99.90
14551;DHT22;7362;50.956;4.184;2022-07-06T07:09:47;24.30;99.90
14551;DHT22;7362;50.956;4.184;2022-07-06T07:12:13;24.00;99.90
14551;DHT22;7362;50.956;4.184;2022-07-06T07:14:40;23.40;99.90
14551;DHT22;7362;50.956;4.184;2022-07-06T07:17:06;22.90;99.90
14551;DHT22;7362;50.956;4.184;2022-07-06T07:19:32;22.80;99.90
14551;DHT22;7362;50.956;4.184;2022-07-06T07:21:58;23.10;99.90
14551;DHT22;7362;50.956;4.184;2022-07-06T07:24:24;24.00;99.90
14551;DHT22;7362;50.956;4.184;2022-07-06T07:26:50;24.40;99.90
14551;DHT22;7362;50.956;4.184;2022-07-06T07:29:16;24.70;99.90
14551;DHT22;7362;50.956;4.184;2022-07-06T07:31:41;24.70;99.90
14551;DHT22;7362;50.956;4.184;2022-07-06T07:34:07;24.60;99.90
14551;DHT22;7362;50.956;4.184;2022-07-06T07:36:33;24.70;99.90
14551;DHT22;7362;50.956;4.184;2022-07-06T07:38:58;25.30;99.50
14551;DHT22;7362;50.956;4.184;2022-07-06T07:41:24;25.60;98.90
14551;DHT22;7362;50.956;4.184;2022-07-06T07:43:50;25.20;98.80
14551;DHT22;7362;50.956;4.184;2022-07-06T07:46:15;25.00;98.90
14551;DHT22;7362;50.956;4.184;2022-07-06T07:48:42;25.70;98.70
14551;DHT22;7362;50.956;4.184;2022-07-06T07:51:11;25.90;97.70
14551;DHT22;7362;50.956;4.184;2022-07-06T07:53:40;26.40;97.00
14551;DHT22;7362;50.956;4.184;2022-07-06T07:56:12;27.10;97.20
14551;DHT22;7362;50.956;4.184;2022-07-06T07:58:40;28.20;95.00
14551;DHT22;7362;50.956;4.184;2022-07-06T08:01:06;29.20;94.40
14551;DHT22;7362;50.956;4.184;2022-07-06T08:03:32;29.70;92.40
14551;DHT22;7362;50.956;4.184;2022-07-06T08:05:58;29.20;93.00
14551;DHT22;7362;50.956;4.184;2022-07-06T08:08:25;29.40;91.90
14551;DHT22;7362;50.956;4.184;2022-07-06T08:10:51;29.70;91.80
14551;DHT22;7362;50.956;4.184;2022-07-06T08:13:16;29.90;90.90
14551;DHT22;7362;50.956;4.184;2022-07-06T08:15:42;30.60;90.10
14551;DHT22;7362;50.956;4.184;2022-07-06T08:18:08;32.10;87.30
14551;DHT22;7362;50.956;4.184;2022-07-06T08:20:36;30.90;88.10
14551;DHT22;7362;50.956;4.184;2022-07-06T08:23:03;29.70;90.10
14551;DHT22;7362;50.956;4.184;2022-07-06T08:25:29;29.50;90.10
14551;DHT22;7362;50.956;4.184;2022-07-06T08:27:55;29.90;90.00
14551;DHT22;7362;50.956;4.184;2022-07-06T08:30:20;29.80;90.00
14551;DHT22;7362;50.956;4.184;2022-07-06T08:32:46;29.90;89.10
14551;DHT22;7362;50.956;4.184;2022-07-06T08:35:12;30.00;89.10
14551;DHT22;7362;50.956;4.184;2022-07-06T08:37:41;29.30;90.00
14551;DHT22;7362;50.956;4.184;2022-07-06T08:40:07;29.60;90.40
14551;DHT22;7362;50.956;4.184;2022-07-06T08:42:35;29.30;90.00
14551;DHT22;7362;50.956;4.184;2022-07-06T08:45:03;29.80;89.60
14551;DHT22;7362;50.956;4.184;2022-07-06T08:47:30;30.60;87.40
14551;DHT22;7362;50.956;4.184;2022-07-06T08:49:57;30.90;87.50
14551;DHT22;7362;50.956;4.184;2022-07-06T08:52:25;31.20;84.40
14551;DHT22;7362;50.956;4.184;2022-07-06T08:55:06;30.70;85.90
14551;DHT22;7362;50.956;4.184;2022-07-06T08:57:35;32.00;84.10
14551;DHT22;7362;50.956;4.184;2022-07-06T09:03:23;31.00;83.40
14551;DHT22;7362;50.956;4.184;2022-07-06T09:05:52;29.70;87.80
14551;DHT22;7362;50.956;4.184;2022-07-06T09:08:28;29.20;88.30
14551;DHT22;7362;50.956;4.184;2022-07-06T09:10:55;27.60;90.10
14551;DHT22;7362;50.956;4.184;2022-07-06T09:13:21;26.30;92.20
14551;DHT22;7362;50.956;4.184;2022-07-06T09:15:47;24.90;93.70
14551;DHT22;7362;50.956;4.184;2022-07-06T09:18:13;25.30;94.60
14551;DHT22;7362;50.956;4.184;2022-07-06T09:20:41;25.80;94.20
14551;DHT22;7362;50.956;4.184;2022-07-06T09:23:07;25.00;95.00
14551;DHT22;7362;50.956;4.184;2022-07-06T09:25:34;24.70;95.30
14551;DHT22;7362;50.956;4.184;2022-07-06T09:28:01;24.90;95.20
14551;DHT22;7362;50.956;4.184;2022-07-06T09:30:28;25.20;95.40
14551;DHT22;7362;50.956;4.184;2022-07-06T09:32:58;25.70;94.60
14551;DHT22;7362;50.956;4.184;2022-07-06T09:35:29;26.90;93.60
14551;DHT22;7362;50.956;4.184;2022-07-06T09:41:47;28.80;91.60
14551;DHT22;7362;50.956;4.184;2022-07-06T09:44:25;29.50;90.60
14551;DHT22;7362;50.956;4.184;2022-07-06T09:46:56;28.60;90.60
14551;DHT22;7362;50.956;4.184;2022-07-06T09:49:23;28.00;91.40
14551;DHT22;7362;50.956;4.184;2022-07-06T09:51:51;27.40;91.10
14551;DHT22;7362;50.956;4.184;2022-07-06T09:54:17;26.30;92.60
14551;DHT22;7362;50.956;4.184;2022-07-06T09:56:45;25.90;93.40
14551;DHT22;7362;50.956;4.184;2022-07-06T09:59:19;26.20;93.10
14551;DHT22;7362;50.956;4.184;2022-07-06T10:01:48;25.70;93.90
14551;DHT22;7362;50.956;4.184;2022-07-06T10:04:19;25.60;93.80
14551;DHT22;7362;50.956;4.184;2022-07-06T10:06:58;25.30;94.40
14551;DHT22;7362;50.956;4.184;2022-07-06T10:12:36;25.40;95.00
14551;DHT22;7362;50.956;4.184;2022-07-06T10:15:28;25.20;94.80
14551;DHT22;7362;50.956;4.184;2022-07-06T10:25:31;26.10;93.70
14551;DHT22;7362;50.956;4.184;2022-07-06T10:28:33;27.10;93.10
14551;DHT22;7362;50.956;4.184;2022-07-06T10:34:18;28.50;91.00
14551;DHT22;7362;50.956;4.184;2022-07-06T10:37:09;28.00;90.90
14551;DHT22;7362;50.956;4.184;2022-07-06T10:49:48;25.40;93.60
14551;DHT22;7362;50.956;4.184;2022-07-06T10:52:21;25.60;93.50
14551;DHT22;7362;50.956;4.184;2022-07-06T10:54:47;24.70;94.50
14551;DHT22;7362;50.956;4.184;2022-07-06T10:57:15;24.10;95.10
14551;DHT22;7362;50.956;4.184;2022-07-06T11:00:02;25.00;94.30
14551;DHT22;7362;50.956;4.184;2022-07-06T11:02:38;27.40;93.20
14551;DHT22;7362;50.956;4.184;2022-07-06T11:05:10;29.40;90.60
14551;DHT22;7362;50.956;4.184;2022-07-06T11:07:49;28.90;90.40
14551;DHT22;7362;50.956;4.184;2022-07-06T11:10:15;28.90;91.00
14551;DHT22;7362;50.956;4.184;2022-07-06T11:12:45;30.70;88.00
14551;DHT22;7362;50.956;4.184;2022-07-06T11:15:11;31.00;85.70
14551;DHT22;7362;50.956;4.184;2022-07-06T11:17:37;32.20;84.50
14551;DHT22;7362;50.956;4.184;2022-07-06T11:20:11;31.00;85.00
14551;DHT22;7362;50.956;4.184;2022-07-06T11:22:38;30.80;84.80
14551;DHT22;7362;50.956;4.184;2022-07-06T11:25:05;28.40;88.60
14551;DHT22;7362;50.956;4.184;2022-07-06T11:27:31;26.80;92.00
14551;DHT22;7362;50.956;4.184;2022-07-06T11:29:59;26.70;91.80
14551;DHT22;7362;50.956;4.184;2022-07-06T11:32:26;26.50;92.80
14551;DHT22;7362;50.956;4.184;2022-07-06T11:34:52;26.10;92.20
14551;DHT22;7362;50.956;4.184;2022-07-06T11:37:18;26.70;91.30
14551;DHT22;7362;50.956;4.184;2022-07-06T11:39:47;27.50;91.20
14551;DHT22;7362;50.956;4.184;2022-07-06T11:42:15;27.20;91.40
14551;DHT22;7362;50.956;4.184;2022-07-06T11:44:42;28.10;90.50
14551;DHT22;7362;50.956;4.184;2022-07-06T11:47:09;28.60;90.10
14551;DHT22;7362;50.956;4.184;2022-07-06T11:49:37;28.60;88.70
14551;DHT22;7362;50.956;4.184;2022-07-06T11:52:11;28.90;89.00
14551;DHT22;7362;50.956;4.184;2022-07-06T11:54:39;28.80;90.20
14551;DHT22;7362;50.956;4.184;2022-07-06T11:57:08;27.30;90.60
14551;DHT22;7362;50.956;4.184;2022-07-06T11:59:37;26.40;91.60
14551;DHT22;7362;50.956;4.184;2022-07-06T12:02:11;26.10;92.30
14551;DHT22;7362;50.956;4.184;2022-07-06T12:04:42;26.60;92.00
14551;DHT22;7362;50.956;4.184;2022-07-06T12:07:11;26.90;91.80
14551;DHT22;7362;50.956;4.184;2022-07-06T12:09:41;26.80;90.90
14551;DHT22;7362;50.956;4.184;2022-07-06T12:12:08;27.30;91.00
14551;DHT22;7362;50.956;4.184;2022-07-06T12:14:36;26.80;91.00
14551;DHT22;7362;50.956;4.184;2022-07-06T12:17:04;27.50;90.40
14551;DHT22;7362;50.956;4.184;2022-07-06T12:19:30;27.90;90.20
14551;DHT22;7362;50.956;4.184;2022-07-06T12:21:56;28.20;90.10
14551;DHT22;7362;50.956;4.184;2022-07-06T12:24:24;28.40;88.40
14551;DHT22;7362;50.956;4.184;2022-07-06T12:26:51;28.40;89.30
14551;DHT22;7362;50.956;4.184;2022-07-06T12:29:19;29.10;87.10
14551;DHT22;7362;50.956;4.184;2022-07-06T12:31:50;29.10;87.90
14551;DHT22;7362;50.956;4.184;2022-07-06T12:34:21;29.50;87.40
14551;DHT22;7362;50.956;4.184;2022-07-06T12:36:57;29.20;87.40
14551;DHT22;7362;50.956;4.184;2022-07-06T12:39:27;28.40;86.90
14551;DHT22;7362;50.956;4.184;2022-07-06T12:42:02;26.80;90.40
14551;DHT22;7362;50.956;4.184;2022-07-06T12:44:29;27.10;90.50
14551;DHT22;7362;50.956;4.184;2022-07-06T12:47:05;27.50;90.70
14551;DHT22;7362;50.956;4.184;2022-07-06T12:49:32;28.90;89.50
14551;DHT22;7362;50.956;4.184;2022-07-06T12:52:02;29.90;86.00
14551;DHT22;7362;50.956;4.184;2022-07-06T12:54:33;29.60;85.10
14551;DHT22;7362;50.956;4.184;2022-07-06T12:59:36;26.80;90.70
14551;DHT22;7362;50.956;4.184;2022-07-06T13:02:06;26.20;91.10
14551;DHT22;7362;50.956;4.184;2022-07-06T13:04:35;26.30;92.60
14551;DHT22;7362;50.956;4.184;2022-07-06T13:07:02;27.40;91.30
14551;DHT22;7362;50.956;4.184;2022-07-06T13:09:29;27.60;90.70
14551;DHT22;7362;50.956;4.184;2022-07-06T13:11:57;27.20;90.70
14551;DHT22;7362;50.956;4.184;2022-07-06T13:14:23;26.80;90.80
14551;DHT22;7362;50.956;4.184;2022-07-06T13:16:48;26.30;91.20
14551;DHT22;7362;50.956;4.184;2022-07-06T13:19:14;25.70;92.20
14551;DHT22;7362;50.956;4.184;2022-07-06T13:21:40;25.40;93.10
14551;DHT22;7362;50.956;4.184;2022-07-06T13:24:08;25.40;92.60
14551;DHT22;7362;50.956;4.184;2022-07-06T13:26:35;25.30;92.70
14551;DHT22;7362;50.956;4.184;2022-07-06T13:29:04;25.90;92.90
14551;DHT22;7362;50.956;4.184;2022-07-06T13:31:31;26.50;92.30
14551;DHT22;7362;50.956;4.184;2022-07-06T13:33:57;27.20;91.90
14551;DHT22;7362;50.956;4.184;2022-07-06T13:36:23;27.80;91.40
14551;DHT22;7362;50.956;4.184;2022-07-06T13:38:49;27.90;91.60
14551;DHT22;7362;50.956;4.184;2022-07-06T13:41:15;28.10;91.10
14551;DHT22;7362;50.956;4.184;2022-07-06T13:43:40;27.70;92.10
14551;DHT22;7362;50.956;4.184;2022-07-06T13:46:07;27.60;91.40
14551;DHT22;7362;50.956;4.184;2022-07-06T13:48:34;27.50;90.90
14551;DHT22;7362;50.956;4.184;2022-07-06T13:51:01;27.20;91.00
14551;DHT22;7362;50.956;4.184;2022-07-06T13:53:26;26.70;92.10
14551;DHT22;7362;50.956;4.184;2022-07-06T13:55:53;27.00;91.50
14551;DHT22;7362;50.956;4.184;2022-07-06T13:58:21;27.00;91.40
14551;DHT22;7362;50.956;4.184;2022-07-06T14:00:50;26.90;91.00
14551;DHT22;7362;50.956;4.184;2022-07-06T14:03:16;26.30;92.10
14551;DHT22;7362;50.956;4.184;2022-07-06T14:05:42;26.30;92.60
14551;DHT22;7362;50.956;4.184;2022-07-06T14:08:07;26.00;92.60
14551;DHT22;7362;50.956;4.184;2022-07-06T14:10:36;25.70;93.00
14551;DHT22;7362;50.956;4.184;2022-07-06T14:13:02;25.70;93.10
14551;DHT22;7362;50.956;4.184;2022-07-06T14:15:27;25.80;92.70
14551;DHT22;7362;50.956;4.184;2022-07-06T14:17:54;25.90;93.10
14551;DHT22;7362;50.956;4.184;2022-07-06T14:20:20;25.80;94.20
14551;DHT22;7362;50.956;4.184;2022-07-06T14:22:45;25.70;92.80
14551;DHT22;7362;50.956;4.184;2022-07-06T14:25:12;25.40;93.50
14551;DHT22;7362;50.956;4.184;2022-07-06T14:27:38;25.00;94.10
14551;DHT22;7362;50.956;4.184;2022-07-06T14:30:09;24.50;94.80
14551;DHT22;7362;50.956;4.184;2022-07-06T14:35:49;24.70;94.80
14551;DHT22;7362;50.956;4.184;2022-07-06T14:38:21;25.00;95.40
14551;DHT22;7362;50.956;4.184;2022-07-06T14:40:49;25.40;94.90
14551;DHT22;7362;50.956;4.184;2022-07-06T14:43:18;25.50;94.70
14551;DHT22;7362;50.956;4.184;2022-07-06T14:45:47;25.30;94.90
14551;DHT22;7362;50.956;4.184;2022-07-06T14:48:37;25.50;94.90
14551;DHT22;7362;50.956;4.184;2022-07-06T14:51:04;25.40;95.00
14551;DHT22;7362;50.956;4.184;2022-07-06T14:53:30;25.40;95.40
14551;DHT22;7362;50.956;4.184;2022-07-06T14:55:58;25.50;95.00
14551;DHT22;7362;50.956;4.184;2022-07-06T14:58:29;25.30;95.00
14551;DHT22;7362;50.956;4.184;2022-07-06T15:00:57;25.20;95.30
14551;DHT22;7362;50.956;4.184;2022-07-06T15:03:23;25.20;95.50
14551;DHT22;7362;50.956;4.184;2022-07-06T15:05:50;25.10;95.50
14551;DHT22;7362;50.956;4.184;2022-07-06T15:08:15;25.20;95.30
14551;DHT22;7362;50.956;4.184;2022-07-06T15:10:44;24.80;95.70
14551;DHT22;7362;50.956;4.184;2022-07-06T15:13:11;24.90;95.80
14551;DHT22;7362;50.956;4.184;2022-07-06T15:15:38;25.00;96.00
14551;DHT22;7362;50.956;4.184;2022-07-06T15:18:05;25.00;96.50
14551;DHT22;7362;50.956;4.184;2022-07-06T15:20:30;25.10;96.00
14551;DHT22;7362;50.956;4.184;2022-07-06T15:23:00;24.90;95.90
14551;DHT22;7362;50.956;4.184;2022-07-06T15:25:28;25.10;96.10
14551;DHT22;7362;50.956;4.184;2022-07-06T15:27:54;25.20;95.70
14551;DHT22;7362;50.956;4.184;2022-07-06T15:30:21;25.10;95.70
14551;DHT22;7362;50.956;4.184;2022-07-06T15:32:47;25.20;95.80
14551;DHT22;7362;50.956;4.184;2022-07-06T15:35:12;25.10;96.00
14551;DHT22;7362;50.956;4.184;2022-07-06T15:37:43;25.00;96.20
14551;DHT22;7362;50.956;4.184;2022-07-06T15:40:09;25.00;96.20
14551;DHT22;7362;50.956;4.184;2022-07-06T15:42:40;25.00;96.10
14551;DHT22;7362;50.956;4.184;2022-07-06T15:45:06;25.00;96.10
14551;DHT22;7362;50.956;4.184;2022-07-06T15:47:33;25.10;96.20
14551;DHT22;7362;50.956;4.184;2022-07-06T15:49:59;25.10;96.30
14551;DHT22;7362;50.956;4.184;2022-07-06T15:52:24;24.90;96.10
14551;DHT22;7362;50.956;4.184;2022-07-06T15:54:52;24.70;96.40
14551;DHT22;7362;50.956;4.184;2022-07-06T15:57:19;24.60;96.80
14551;DHT22;7362;50.956;4.184;2022-07-06T15:59:46;24.70;97.00
14551;DHT22;7362;50.956;4.184;2022-07-06T16:02:12;24.70;97.00
14551;DHT22;7362;50.956;4.184;2022-07-06T16:04:37;24.50;97.20
14551;DHT22;7362;50.956;4.184;2022-07-06T16:07:03;24.60;97.40
14551;DHT22;7362;50.956;4.184;2022-07-06T16:09:32;24.50;97.10
14551;DHT22;7362;50.956;4.184;2022-07-06T16:11:59;24.50;97.50
14551;DHT22;7362;50.956;4.184;2022-07-06T16:14:25;24.70;97.40
14551;DHT22;7362;50.956;4.184;2022-07-06T16:16:50;24.60;97.20
14551;DHT22;7362;50.956;4.184;2022-07-06T16:19:16;24.40;97.50
14551;DHT22;7362;50.956;4.184;2022-07-06T16:21:44;24.40;97.80
14551;DHT22;7362;50.956;4.184;2022-07-06T16:24:10;24.30;98.30